Pequea, PA

21:09 EDT je la 22an de majo 2015 (GMT -0400)
Mt. Nebo | | Change Station
CLOSE
Current Station
Personaj Veter-Stacioj
Location: Holtwood, PA
Alteco: 843 ft
Najbaraj veter-stacioj

Elev 843 ft 39.88 °N, 76.32 °W | Updated 6 seconds ago

Sennuba
Sennuba
61.7 °F
Sentas kiel 61.7 °F
N
0.0
Vento Varianta Vento from SOr
Gusts 0.0 mej/h

hodiaŭ
High -- | Low -- °F
--% Ebla precip.
hieraŭ
High -- | Low -- °F
Precip. -- co
5:44 AM 8:19 PM
Kreskanta Lunarko, 25% visible
Aerpremo 30.10 co
Vidodistanco 10.0 mejloj
Nuboj Sennuba
Rosopunkto 38 °F
Humido 42%
Pluvokvanto 0.00 co
Neĝprofundo Not available.
UV 0 out of 12
Pollen 9.10 out of 12
Aerkvalito Not available.
Flu Activity Sporadic
METAR KLNS 230053Z 32009KT 10SM CLR 17/01 A3010 RMK AO2 SLP192 T01670011

More Conditions Fewer Conditions

Aerpremo 30.10 co
Vidodistanco 10.0 mejloj
Nuboj Sennuba
Rosopunkto 38 °F
Humido 42%
Pluvokvanto 0.00 co
Neĝprofundo Not available.
UV 0 out of 12
Pollen 9.10 out of 12
Aerkvalito Not available.
Flu Activity Sporadic
METAR KLNS 230053Z 32009KT 10SM CLR 17/01 A3010 RMK AO2 SLP192 T01670011

More Conditions Fewer Conditions

10-Day Weather Forecast

Almanac

Astronomio

May. 22, 2015 Leviĝo Subiro
Aktuala tempo
Civila krepusko
Naŭtika krepusko
Astronomia krepusko
Luno
Daŭro de videbla lumo
Daŭro de tago
Tomorrow will be .
, % of the Moon is Illuminated

Hodiaŭaj ekstremaĵoj

State Highs State Lows

Community

WunderPhotos

Upload Photos

1,823,355 photos uploaded!

WunderBlogs® & News

Nearby

Aerkvalito

  Aerkvalito Aerkvalita indico Poluanto
Not available.

Neĝa profundeco

Station Depth Alteco

Earthquake Activity

Urbo Distance Mag. Time & Date
Minimum magnitude displayed is 2.5.

Coastal Water Temperatures

Loko Temperaturo

Stations

Najbaraj veter-stacioj

Loko de stacio Temp Venta
kvazaŭtemperaturo
Rosopunkto Humido Vento Precip. Elev Ĝisdatigita je Tipo